createdAt,value
2022-12-04T00:02:02.378Z,14.75
2022-12-04T00:04:35.503Z,14.85
2022-12-04T00:07:08.250Z,14.03
2022-12-04T00:09:40.693Z,13.75
2022-12-04T00:12:13.233Z,13.80
2022-12-04T00:15:23.555Z,14.50
2022-12-04T00:17:19.964Z,14.13
2022-12-04T00:19:52.804Z,14.30
2022-12-04T00:22:25.671Z,14.07
2022-12-04T00:24:58.003Z,12.47
2022-12-04T00:27:30.616Z,13.72
2022-12-04T00:30:03.058Z,13.95
2022-12-04T00:32:36.660Z,13.93
2022-12-04T00:35:10.088Z,13.50
2022-12-04T00:37:42.468Z,14.73
2022-12-04T00:40:15.420Z,13.75
2022-12-04T00:42:47.927Z,15.58
2022-12-04T00:45:20.395Z,13.78
2022-12-04T00:47:53.078Z,15.32
2022-12-04T00:50:25.520Z,15.00
2022-12-04T00:52:58.684Z,15.55
2022-12-04T00:55:31.053Z,11.33
2022-12-04T00:58:03.490Z,16.00
2022-12-04T01:00:38.018Z,16.25
2022-12-04T01:03:11.169Z,13.48
2022-12-04T01:05:46.015Z,14.53
2022-12-04T01:08:18.641Z,15.68
2022-12-04T01:11:05.978Z,15.13
2022-12-04T01:13:38.551Z,14.73
2022-12-04T01:16:12.947Z,14.38
2022-12-04T01:18:45.625Z,15.00
2022-12-04T01:21:18.818Z,14.07
2022-12-04T01:23:51.412Z,14.33
2022-12-04T01:26:23.736Z,15.48
2022-12-04T01:28:56.290Z,16.20
2022-12-04T01:31:28.786Z,14.95
2022-12-04T01:34:01.368Z,15.70
2022-12-04T01:36:33.910Z,15.25
2022-12-04T01:39:06.314Z,14.55
2022-12-04T01:41:38.736Z,15.75
2022-12-04T01:44:23.251Z,14.95
2022-12-04T01:49:44.305Z,17.17
2022-12-04T01:52:21.553Z,15.50
2022-12-04T01:55:00.140Z,15.50
2022-12-04T01:57:33.795Z,15.18
2022-12-04T02:00:15.883Z,16.30
2022-12-04T02:02:48.865Z,14.93
2022-12-04T02:05:22.738Z,15.98
2022-12-04T02:07:59.045Z,17.35
2022-12-04T02:10:39.756Z,16.17
2022-12-04T02:13:28.790Z,17.60
2022-12-04T02:16:17.758Z,17.42
2022-12-04T02:18:55.129Z,16.52
2022-12-04T02:21:45.030Z,17.40
2022-12-04T02:24:48.285Z,16.45
2022-12-04T02:27:49.151Z,15.85
2022-12-04T02:30:22.041Z,14.70
2022-12-04T02:33:23.631Z,15.95
2022-12-04T02:36:16.251Z,16.85
2022-12-04T02:39:26.903Z,16.30
2022-12-04T02:42:19.053Z,16.17
2022-12-04T02:47:44.750Z,15.25
2022-12-04T02:50:21.319Z,16.20
2022-12-04T02:52:58.010Z,16.30
2022-12-04T02:55:38.786Z,15.48
2022-12-04T02:58:25.029Z,15.13
2022-12-04T03:00:58.646Z,15.72
2022-12-04T03:03:32.448Z,14.98
2022-12-04T03:06:09.072Z,14.75
2022-12-04T03:08:49.007Z,14.53
2022-12-04T03:11:21.784Z,14.40
2022-12-04T03:14:02.723Z,14.83
2022-12-04T03:16:40.071Z,14.40
2022-12-04T03:19:22.753Z,14.05
2022-12-04T03:22:05.871Z,15.08
2022-12-04T03:24:45.017Z,13.35
2022-12-04T03:27:40.745Z,14.13
2022-12-04T03:30:16.944Z,14.18
2022-12-04T03:33:06.512Z,14.15
2022-12-04T03:36:07.593Z,12.47
2022-12-04T03:39:08.686Z,15.05
2022-12-04T03:41:54.863Z,13.72
2022-12-04T03:44:47.858Z,15.00
2022-12-04T03:47:24.257Z,14.25
2022-12-04T03:50:16.683Z,14.25
2022-12-04T03:53:33.325Z,15.23
2022-12-04T03:56:19.446Z,14.28
2022-12-04T03:59:00.089Z,14.03
2022-12-04T04:01:38.001Z,14.58
2022-12-04T04:04:14.691Z,15.03
2022-12-04T04:06:52.179Z,14.80
2022-12-04T04:09:27.530Z,13.90
2022-12-04T04:12:09.291Z,14.50
2022-12-04T04:15:17.693Z,13.90
2022-12-04T04:18:08.311Z,13.98
2022-12-04T04:21:05.827Z,14.25
2022-12-04T04:24:02.226Z,14.40
2022-12-04T04:26:38.845Z,14.25
2022-12-04T04:29:12.009Z,13.78
2022-12-04T04:31:58.048Z,14.10
2022-12-04T04:34:56.104Z,13.70
2022-12-04T04:37:33.305Z,13.18
2022-12-04T04:40:38.232Z,12.90
2022-12-04T04:43:47.151Z,13.40
2022-12-04T04:46:26.559Z,13.13
2022-12-04T04:49:02.416Z,13.72
2022-12-04T04:51:36.633Z,13.55
2022-12-04T04:54:11.373Z,13.60
2022-12-04T04:56:45.319Z,16.23
2022-12-04T04:59:18.256Z,14.58
2022-12-04T05:01:50.818Z,15.90
2022-12-04T05:04:23.992Z,17.20
2022-12-04T05:06:56.619Z,14.38
2022-12-04T05:09:29.146Z,13.93
2022-12-04T05:12:01.588Z,13.70
2022-12-04T05:14:34.161Z,14.23
2022-12-04T05:17:12.364Z,13.13
2022-12-04T05:19:54.519Z,12.73
2022-12-04T05:22:34.023Z,13.85
2022-12-04T05:25:07.019Z,13.88
2022-12-04T05:27:39.691Z,14.63
2022-12-04T05:30:12.926Z,15.83
2022-12-04T05:32:45.457Z,14.47
2022-12-04T05:35:18.659Z,16.07
2022-12-04T05:37:51.298Z,15.05
2022-12-04T05:40:23.803Z,19.20
2022-12-04T05:42:56.232Z,17.20
2022-12-04T05:45:28.676Z,19.42
2022-12-04T05:48:00.990Z,16.50
2022-12-04T05:50:33.945Z,15.45
2022-12-04T05:53:06.422Z,14.58
2022-12-04T05:55:39.155Z,15.45
2022-12-04T05:58:11.715Z,15.10
2022-12-04T06:00:44.121Z,14.33
2022-12-04T06:03:16.727Z,13.72
2022-12-04T06:05:49.305Z,15.15
2022-12-04T06:08:21.782Z,14.43
2022-12-04T06:10:54.429Z,15.18
2022-12-04T06:13:27.080Z,15.15
2022-12-04T06:15:59.524Z,13.72
2022-12-04T06:18:32.460Z,13.85
2022-12-04T06:21:05.037Z,13.98
2022-12-04T06:23:38.308Z,15.32
2022-12-04T06:26:10.929Z,17.20
2022-12-04T06:28:43.515Z,16.82
2022-12-04T06:31:19.259Z,15.63
2022-12-04T06:33:51.811Z,15.68
2022-12-04T06:36:24.657Z,16.07
2022-12-04T06:38:57.961Z,18.37
2022-12-04T06:41:30.735Z,14.65
2022-12-04T06:44:03.209Z,15.40
2022-12-04T06:46:36.564Z,14.90
2022-12-04T06:49:10.677Z,14.65
2022-12-04T06:51:43.728Z,14.85
2022-12-04T06:54:16.787Z,15.08
2022-12-04T06:56:50.673Z,14.30
2022-12-04T06:59:23.094Z,16.17
2022-12-04T07:01:55.696Z,17.35
2022-12-04T07:04:28.189Z,18.80
2022-12-04T07:07:00.616Z,15.90
2022-12-04T07:09:34.720Z,13.85
2022-12-04T07:12:07.902Z,14.78
2022-12-04T07:14:40.763Z,13.48
2022-12-04T07:17:13.350Z,13.58
2022-12-04T07:19:45.942Z,14.00
2022-12-04T07:22:18.676Z,14.20
2022-12-04T07:24:51.742Z,13.10
2022-12-04T07:27:24.360Z,14.93
2022-12-04T07:29:56.971Z,14.80
2022-12-04T07:32:29.728Z,14.55
2022-12-04T07:35:02.868Z,13.78
2022-12-04T07:37:37.493Z,13.83
2022-12-04T07:40:11.124Z,14.53
2022-12-04T07:42:43.629Z,13.70
2022-12-04T07:45:16.003Z,14.45
2022-12-04T07:47:50.517Z,14.28
2022-12-04T07:50:23.166Z,12.05
2022-12-04T07:52:55.727Z,12.85
2022-12-04T07:55:28.458Z,13.48
2022-12-04T07:58:01.033Z,12.98
2022-12-04T08:00:34.550Z,13.50
2022-12-04T08:03:07.026Z,14.15
2022-12-04T08:05:39.884Z,12.30
2022-12-04T08:08:12.704Z,11.95
2022-12-04T08:10:45.162Z,13.43
2022-12-04T08:13:17.475Z,12.70
2022-12-04T08:15:50.008Z,12.30
2022-12-04T08:18:22.426Z,12.78
2022-12-04T08:20:55.133Z,13.50
2022-12-04T08:23:28.832Z,13.95
2022-12-04T08:26:02.597Z,13.65
2022-12-04T08:28:35.194Z,14.73
2022-12-04T08:31:10.891Z,13.98
2022-12-04T08:33:44.608Z,14.15
2022-12-04T08:38:53.564Z,14.60
2022-12-04T08:41:26.529Z,15.03
2022-12-04T08:43:59.926Z,15.35
2022-12-04T08:46:32.596Z,14.98
2022-12-04T08:49:05.710Z,12.88
2022-12-04T08:51:39.331Z,15.13
2022-12-04T08:54:13.809Z,14.75
2022-12-04T08:56:46.257Z,15.80
2022-12-04T08:59:19.297Z,15.53
2022-12-04T09:01:52.714Z,13.62
2022-12-04T09:04:25.495Z,13.78
2022-12-04T09:06:58.040Z,14.15
2022-12-04T09:09:30.938Z,14.23
2022-12-04T09:12:03.426Z,13.53
2022-12-04T09:14:36.088Z,14.25
2022-12-04T09:17:09.444Z,14.93
2022-12-04T09:19:41.935Z,13.98
2022-12-04T09:22:14.712Z,16.27
2022-12-04T09:24:47.784Z,13.70
2022-12-04T09:27:20.216Z,14.45
2022-12-04T09:29:52.734Z,15.50
2022-12-04T09:32:25.310Z,13.98
2022-12-04T09:34:57.981Z,12.05
2022-12-04T09:37:30.661Z,13.62
2022-12-04T09:40:04.008Z,13.93
2022-12-04T09:43:10.053Z,14.35
2022-12-04T09:45:52.261Z,13.53
2022-12-04T09:48:25.638Z,13.53
2022-12-04T09:50:58.210Z,13.10
2022-12-04T09:53:35.510Z,12.85
2022-12-04T09:56:12.917Z,11.18
2022-12-04T09:59:01.709Z,12.93
2022-12-04T10:02:01.674Z,13.05
2022-12-04T10:04:34.577Z,12.58
2022-12-04T10:07:16.959Z,14.83
2022-12-04T10:10:05.645Z,12.73
2022-12-04T10:13:04.487Z,14.33
2022-12-04T10:16:00.404Z,13.72
2022-12-04T10:18:53.453Z,13.70
2022-12-04T10:21:39.512Z,13.60
2022-12-04T10:24:45.425Z,12.70
2022-12-04T10:27:43.549Z,11.53
2022-12-04T10:30:36.999Z,12.00
2022-12-04T10:33:23.409Z,12.53
2022-12-04T10:35:56.348Z,11.12
2022-12-04T10:38:36.984Z,11.28
2022-12-04T10:41:38.071Z,11.15
2022-12-04T10:44:16.897Z,11.35
2022-12-04T10:46:49.380Z,10.90
2022-12-04T10:49:44.603Z,11.63
2022-12-04T10:52:17.848Z,11.10
2022-12-04T10:55:09.581Z,9.38
2022-12-04T10:57:47.485Z,8.58
2022-12-04T11:00:36.188Z,7.58
2022-12-04T11:03:14.158Z,8.25
2022-12-04T11:05:56.676Z,7.78
2022-12-04T11:08:42.504Z,7.30
2022-12-04T11:13:47.700Z,7.15
2022-12-04T11:16:43.563Z,6.47
2022-12-04T11:19:25.661Z,6.85
2022-12-04T11:22:08.115Z,5.95
2022-12-04T11:24:43.413Z,8.18
2022-12-04T11:27:44.287Z,8.03
2022-12-04T11:30:23.825Z,7.72
2022-12-04T11:32:57.126Z,6.62
2022-12-04T11:35:30.554Z,6.87
2022-12-04T11:38:17.901Z,6.65
2022-12-04T11:40:56.220Z,6.47
2022-12-04T11:43:30.682Z,7.42
2022-12-04T11:46:07.737Z,6.65
2022-12-04T11:48:46.194Z,6.78
2022-12-04T11:51:44.620Z,6.90
2022-12-04T11:54:40.009Z,6.83
2022-12-04T11:57:38.103Z,6.28
2022-12-04T12:00:22.934Z,6.08
2022-12-04T12:03:18.754Z,6.50
2022-12-04T12:06:21.675Z,6.58
2022-12-04T12:09:07.998Z,6.37
2022-12-04T12:11:45.503Z,6.72
2022-12-04T12:14:28.269Z,6.35
2022-12-04T12:17:19.776Z,6.20
2022-12-04T12:20:06.824Z,6.72
2022-12-04T12:22:56.429Z,6.15
2022-12-04T12:25:52.109Z,6.62
2022-12-04T12:28:36.372Z,6.50
2022-12-04T12:31:54.325Z,6.28
2022-12-04T12:34:40.596Z,6.10
2022-12-04T12:37:20.573Z,6.05
2022-12-04T12:40:00.572Z,5.67
2022-12-04T12:42:43.646Z,5.08
2022-12-04T12:45:29.994Z,5.78
2022-12-04T12:48:22.917Z,5.65
2022-12-04T12:51:28.416Z,5.75
2022-12-04T12:53:40.712Z,5.10
2022-12-04T12:56:13.448Z,4.75
2022-12-04T12:58:55.390Z,5.25
2022-12-04T13:01:52.828Z,5.40
2022-12-04T13:04:45.500Z,4.92
2022-12-04T13:07:25.484Z,5.53
2022-12-04T13:10:24.239Z,5.28
2022-12-04T13:13:02.664Z,5.15
2022-12-04T13:16:00.250Z,5.37
2022-12-04T13:18:37.367Z,5.30
2022-12-04T13:21:09.679Z,5.17
2022-12-04T13:24:15.871Z,5.10
2022-12-04T13:27:24.826Z,5.10
2022-12-04T13:30:22.319Z,5.30
2022-12-04T13:33:25.572Z,5.05
2022-12-04T13:36:33.143Z,5.58
2022-12-04T13:39:35.725Z,5.47
2022-12-04T13:42:10.301Z,4.95
2022-12-04T13:44:43.342Z,5.17
2022-12-04T13:47:16.046Z,4.90
2022-12-04T13:49:48.365Z,5.55
2022-12-04T13:52:29.603Z,5.15
2022-12-04T13:55:02.689Z,5.20
2022-12-04T13:57:35.848Z,5.05
2022-12-04T14:00:31.570Z,4.97
2022-12-04T14:03:10.442Z,4.90
2022-12-04T14:05:43.683Z,4.83
2022-12-04T14:08:23.696Z,4.97
2022-12-04T14:11:08.499Z,4.55
2022-12-04T14:16:36.524Z,4.62
2022-12-04T14:19:08.966Z,5.20
2022-12-04T14:21:44.772Z,4.67
2022-12-04T14:24:20.475Z,4.75
2022-12-04T14:27:11.099Z,4.60
2022-12-04T14:29:37.732Z,4.62
2022-12-04T14:32:19.027Z,4.60
2022-12-04T14:34:51.998Z,5.28
2022-12-04T14:37:32.144Z,4.55
2022-12-04T14:40:07.551Z,5.05
2022-12-04T14:42:40.818Z,4.15
2022-12-04T14:45:32.695Z,4.45
2022-12-04T14:48:31.396Z,5.00
2022-12-04T14:51:20.768Z,5.30
2022-12-04T14:54:31.358Z,4.55
2022-12-04T14:57:29.208Z,4.08
2022-12-04T15:00:01.781Z,4.37
2022-12-04T15:02:43.179Z,4.03
2022-12-04T15:05:22.700Z,5.37
2022-12-04T15:08:01.938Z,5.03
2022-12-04T15:10:54.127Z,4.37
2022-12-04T15:13:32.120Z,4.42
2022-12-04T15:16:21.746Z,4.85
2022-12-04T15:19:01.521Z,4.60
2022-12-04T15:21:41.090Z,4.97
2022-12-04T15:24:22.981Z,4.25
2022-12-04T15:26:55.451Z,4.55
2022-12-04T15:29:29.867Z,4.40
2022-12-04T15:32:06.379Z,4.28
2022-12-04T15:34:48.471Z,4.30
2022-12-04T15:37:32.312Z,4.37
2022-12-04T15:40:11.491Z,4.78
2022-12-04T15:42:43.879Z,4.87
2022-12-04T15:45:26.429Z,4.50
2022-12-04T15:47:58.956Z,4.85
2022-12-04T15:50:31.721Z,4.20
2022-12-04T15:53:08.762Z,5.87
2022-12-04T15:55:50.671Z,5.05
2022-12-04T15:58:34.178Z,5.05
2022-12-04T16:01:10.548Z,5.17
2022-12-04T16:03:52.758Z,5.03
2022-12-04T16:06:31.110Z,5.90
2022-12-04T16:09:26.883Z,5.37
2022-12-04T16:12:06.784Z,6.20
2022-12-04T16:14:39.649Z,6.03
2022-12-04T16:17:12.470Z,6.05
2022-12-04T16:19:44.815Z,5.65
2022-12-04T16:22:21.178Z,5.55
2022-12-04T16:24:54.368Z,5.55
2022-12-04T16:27:27.768Z,5.85
2022-12-04T16:30:00.926Z,6.33
2022-12-04T16:32:35.014Z,5.70
2022-12-04T16:35:08.914Z,7.58
2022-12-04T16:37:41.986Z,6.40
2022-12-04T16:40:15.459Z,7.20
2022-12-04T16:42:48.113Z,7.50
2022-12-04T16:45:28.063Z,6.87
2022-12-04T16:48:00.670Z,7.70
2022-12-04T16:50:33.472Z,7.28
2022-12-04T16:53:05.985Z,7.83
2022-12-04T16:55:40.225Z,7.55
2022-12-04T17:00:47.661Z,7.60
2022-12-04T17:03:30.031Z,7.95
2022-12-04T17:06:02.788Z,8.18
2022-12-04T17:08:35.881Z,7.90
2022-12-04T17:11:08.367Z,7.37
2022-12-04T17:13:40.913Z,8.10
2022-12-04T17:16:15.198Z,7.87
2022-12-04T17:21:19.794Z,7.92
2022-12-04T17:23:52.350Z,8.00
2022-12-04T17:26:24.999Z,7.58
2022-12-04T17:28:57.436Z,7.85
2022-12-04T17:31:30.152Z,7.40
2022-12-04T17:34:02.943Z,7.40
2022-12-04T17:36:35.608Z,7.45
2022-12-04T17:39:08.407Z,9.03
2022-12-04T17:41:41.232Z,7.83
2022-12-04T17:44:14.297Z,7.83
2022-12-04T17:46:47.227Z,8.45
2022-12-04T17:49:19.647Z,8.08
2022-12-04T17:51:52.138Z,7.47
2022-12-04T17:54:25.763Z,8.43
2022-12-04T17:56:58.412Z,7.67
2022-12-04T17:59:30.937Z,7.20
2022-12-04T18:02:03.476Z,7.15
2022-12-04T18:04:36.139Z,7.28
2022-12-04T18:07:08.884Z,7.08
2022-12-04T18:09:41.800Z,7.58
2022-12-04T18:12:15.037Z,6.90
2022-12-04T18:14:47.434Z,6.43
2022-12-04T18:17:21.013Z,6.10
2022-12-04T18:19:53.812Z,6.12
2022-12-04T18:22:27.047Z,6.00
2022-12-04T18:25:00.805Z,5.78
2022-12-04T18:27:36.639Z,6.97
2022-12-04T18:30:10.209Z,6.45
2022-12-04T18:32:42.720Z,6.47
2022-12-04T18:35:15.256Z,5.72
2022-12-04T18:37:47.812Z,5.67
2022-12-04T18:40:20.411Z,5.78
2022-12-04T18:42:52.954Z,5.53
2022-12-04T18:45:26.095Z,5.83
2022-12-04T18:47:58.665Z,5.87
2022-12-04T18:50:31.588Z,5.30
2022-12-04T18:53:04.063Z,5.72
2022-12-04T18:55:38.364Z,6.05
2022-12-04T18:58:10.640Z,4.70
2022-12-04T19:00:43.098Z,5.90
2022-12-04T19:03:15.890Z,5.33
2022-12-04T19:05:51.896Z,5.55
2022-12-04T19:08:28.467Z,6.85
2022-12-04T19:11:00.780Z,5.35
2022-12-04T19:13:34.430Z,5.33
2022-12-04T19:18:42.407Z,4.97
2022-12-04T19:21:16.612Z,5.20
2022-12-04T19:23:56.950Z,5.17
2022-12-04T19:26:30.680Z,5.42
2022-12-04T19:29:03.862Z,5.53
2022-12-04T19:31:37.993Z,4.87
2022-12-04T19:34:10.780Z,6.28
2022-12-04T19:36:45.214Z,5.22
2022-12-04T19:39:17.906Z,4.90
2022-12-04T19:41:50.213Z,5.35
2022-12-04T19:49:28.677Z,4.85
2022-12-04T19:52:01.379Z,5.55
2022-12-04T19:54:34.043Z,4.92
2022-12-04T19:57:09.692Z,5.10
2022-12-04T19:59:46.229Z,4.95
2022-12-04T20:02:16.736Z,5.28
2022-12-04T20:04:49.227Z,5.03
2022-12-04T20:07:21.691Z,4.95
2022-12-04T20:09:56.154Z,4.87
2022-12-04T20:12:29.565Z,4.33
2022-12-04T20:15:02.333Z,5.25
2022-12-04T20:17:34.975Z,5.70
2022-12-04T20:20:09.258Z,5.40
2022-12-04T20:22:41.925Z,5.55
2022-12-04T20:25:14.398Z,5.60
2022-12-04T20:27:48.150Z,5.15
2022-12-04T20:30:20.894Z,4.92
2022-12-04T20:32:53.270Z,5.60
2022-12-04T20:35:25.956Z,4.78
2022-12-04T20:37:58.501Z,6.10
2022-12-04T20:40:30.947Z,6.20
2022-12-04T20:43:03.331Z,5.97
2022-12-04T20:45:35.896Z,6.00
2022-12-04T20:48:08.758Z,6.00
2022-12-04T20:50:42.947Z,6.08
2022-12-04T20:55:57.064Z,5.45
2022-12-04T20:58:29.842Z,5.30
2022-12-04T21:01:08.538Z,6.03
2022-12-04T21:03:41.142Z,5.95
2022-12-04T21:06:29.615Z,6.20
2022-12-04T21:09:01.760Z,6.12
2022-12-04T21:11:40.917Z,5.90
2022-12-04T21:14:40.335Z,6.30
2022-12-04T21:17:18.737Z,6.50
2022-12-04T21:19:52.776Z,6.83
2022-12-04T21:22:25.114Z,7.42
2022-12-04T21:24:57.719Z,6.80
2022-12-04T21:27:30.945Z,6.50
2022-12-04T21:30:04.343Z,6.58
2022-12-04T21:32:36.995Z,6.87
2022-12-04T21:35:10.096Z,6.40
2022-12-04T21:37:42.892Z,6.97
2022-12-04T21:40:15.876Z,6.67
2022-12-04T21:42:48.206Z,6.65
2022-12-04T21:45:20.839Z,7.17
2022-12-04T21:47:53.546Z,7.03
2022-12-04T21:50:26.544Z,7.13
2022-12-04T21:52:58.952Z,6.45
2022-12-04T21:55:31.376Z,6.25
2022-12-04T21:58:04.993Z,6.65
2022-12-04T22:03:12.561Z,7.15
2022-12-04T22:05:45.004Z,7.10
2022-12-04T22:08:17.475Z,6.28
2022-12-04T22:10:49.946Z,6.53
2022-12-04T22:13:22.627Z,7.28
2022-12-04T22:15:55.178Z,6.70
2022-12-04T22:18:29.139Z,6.97
2022-12-04T22:21:03.875Z,7.35
2022-12-04T22:23:36.540Z,6.15
2022-12-04T22:26:16.023Z,7.15
2022-12-04T22:28:48.469Z,6.45
2022-12-04T22:31:23.063Z,7.15
2022-12-04T22:33:58.139Z,6.65
2022-12-04T22:36:32.891Z,6.40
2022-12-04T22:39:09.727Z,6.67
2022-12-04T22:41:39.847Z,7.30
2022-12-04T22:44:13.422Z,6.72
2022-12-04T22:46:46.041Z,6.17
2022-12-04T22:49:18.615Z,6.72
2022-12-04T22:51:52.250Z,6.92
2022-12-04T22:54:24.683Z,6.67
2022-12-04T22:56:57.245Z,7.10
2022-12-04T22:59:29.947Z,6.35
2022-12-04T23:02:02.563Z,7.12
2022-12-04T23:04:35.304Z,7.00
2022-12-04T23:07:07.934Z,7.53
2022-12-04T23:09:40.796Z,7.05
2022-12-04T23:12:15.188Z,6.70
2022-12-04T23:14:47.649Z,6.37
2022-12-04T23:17:20.627Z,6.92
2022-12-04T23:19:53.651Z,6.53
2022-12-04T23:22:26.365Z,6.17
2022-12-04T23:24:59.005Z,6.85
2022-12-04T23:27:33.417Z,6.67
2022-12-04T23:30:07.063Z,7.12
2022-12-04T23:32:39.807Z,7.67
2022-12-04T23:35:12.443Z,7.17
2022-12-04T23:37:44.802Z,6.65
2022-12-04T23:40:17.388Z,6.35
2022-12-04T23:42:49.899Z,6.50
2022-12-04T23:45:22.325Z,6.28
2022-12-04T23:47:56.004Z,6.28
2022-12-04T23:53:00.524Z,7.30
2022-12-04T23:55:34.765Z,7.08
2022-12-04T23:58:07.843Z,6.72
